createdAt,value
2018-11-05T00:00:22.503Z,101214.00
2018-11-05T00:02:52.346Z,101217.00
2018-11-05T00:05:21.926Z,101210.00
2018-11-05T00:07:51.022Z,101208.00
2018-11-05T00:10:19.884Z,101209.00
2018-11-05T00:12:48.779Z,101214.00
2018-11-05T00:15:17.629Z,101199.00
2018-11-05T00:17:46.454Z,101201.00
2018-11-05T00:20:15.274Z,101200.00
2018-11-05T00:22:44.378Z,101189.00
2018-11-05T00:25:13.808Z,101200.00
2018-11-05T00:27:42.950Z,101184.00
2018-11-05T00:30:13.023Z,101183.00
2018-11-05T00:32:42.169Z,101177.00
2018-11-05T00:35:11.150Z,101187.00
2018-11-05T00:37:40.240Z,101180.00
2018-11-05T00:40:15.245Z,101176.00
2018-11-05T00:42:45.105Z,101175.00
2018-11-05T00:45:14.879Z,101166.00
2018-11-05T00:47:44.264Z,101167.00
2018-11-05T00:50:14.569Z,101165.00
2018-11-05T00:52:43.387Z,101175.00
2018-11-05T00:55:12.848Z,101170.00
2018-11-05T00:57:41.701Z,101151.00
2018-11-05T01:00:12.779Z,101164.00
2018-11-05T01:02:42.193Z,101158.00
2018-11-05T01:05:12.410Z,101153.00
2018-11-05T01:07:41.902Z,101161.00
2018-11-05T01:10:12.006Z,101158.00
2018-11-05T01:12:40.861Z,101157.00
2018-11-05T01:15:13.469Z,101158.00
2018-11-05T01:17:42.286Z,101159.00
2018-11-05T01:20:12.189Z,101153.00
2018-11-05T01:22:41.190Z,101155.00
2018-11-05T01:25:10.018Z,101155.00
2018-11-05T01:27:38.843Z,101152.00
2018-11-05T01:30:10.283Z,101154.00
2018-11-05T01:32:39.082Z,101151.00
2018-11-05T01:35:10.170Z,101152.00
2018-11-05T01:37:38.992Z,101156.00
2018-11-05T01:40:11.866Z,101148.00
2018-11-05T01:42:40.780Z,101148.00
2018-11-05T01:45:10.848Z,101148.00
2018-11-05T01:47:40.650Z,101154.00
2018-11-05T01:50:11.831Z,101147.00
2018-11-05T01:52:43.932Z,101141.00
2018-11-05T01:55:12.770Z,101143.00
2018-11-05T01:57:41.966Z,101139.00
2018-11-05T02:00:14.184Z,101137.00
2018-11-05T02:02:43.327Z,101140.00
2018-11-05T02:05:12.262Z,101133.00
2018-11-05T02:07:42.336Z,101124.00
2018-11-05T02:10:13.658Z,101132.00
2018-11-05T02:12:42.668Z,101093.00
2018-11-05T02:15:11.961Z,101124.00
2018-11-05T02:17:42.200Z,101131.00
2018-11-05T02:20:11.498Z,101123.00
2018-11-05T02:22:40.786Z,101120.00
2018-11-05T02:25:10.830Z,101112.00
2018-11-05T02:27:39.914Z,101119.00
2018-11-05T02:30:12.753Z,101112.00
2018-11-05T02:32:41.590Z,101107.00
2018-11-05T02:35:12.221Z,101099.00
2018-11-05T02:37:41.868Z,101107.00
2018-11-05T02:40:13.683Z,101113.00
2018-11-05T02:42:43.131Z,101106.00
2018-11-05T02:45:13.313Z,101118.00
2018-11-05T02:47:42.634Z,101114.00
2018-11-05T02:50:12.853Z,101102.00
2018-11-05T02:52:42.650Z,101108.00
2018-11-05T02:55:11.455Z,101122.00
2018-11-05T02:57:41.460Z,101122.00
2018-11-05T03:00:14.338Z,101124.00
2018-11-05T03:02:43.447Z,101113.00
2018-11-05T03:05:13.800Z,101122.00
2018-11-05T03:07:43.052Z,101113.00
2018-11-05T03:10:12.471Z,101116.00
2018-11-05T03:12:41.973Z,101120.00
2018-11-05T03:15:13.388Z,101127.00
2018-11-05T03:17:42.276Z,101115.00
2018-11-05T03:20:12.433Z,101120.00
2018-11-05T03:22:41.831Z,101126.00
2018-11-05T03:25:10.664Z,101120.00
2018-11-05T03:27:39.915Z,101122.00
2018-11-05T03:30:13.485Z,101115.00
2018-11-05T03:32:42.396Z,101127.00
2018-11-05T03:35:12.247Z,101116.00
2018-11-05T03:37:42.491Z,101113.00
2018-11-05T03:40:12.052Z,101124.00
2018-11-05T03:42:41.762Z,101122.00
2018-11-05T03:45:12.500Z,101123.00
2018-11-05T03:47:41.320Z,101121.00
2018-11-05T03:50:13.210Z,101119.00
2018-11-05T03:52:42.331Z,101121.00
2018-11-05T03:55:11.203Z,101119.00
2018-11-05T03:57:40.310Z,101114.00
2018-11-05T04:00:11.268Z,101108.00
2018-11-05T04:02:40.202Z,101094.00
2018-11-05T04:05:09.580Z,101102.00
2018-11-05T04:07:38.992Z,101095.00
2018-11-05T04:10:09.622Z,101078.00
2018-11-05T04:12:38.486Z,101086.00
2018-11-05T04:15:08.984Z,101089.00
2018-11-05T04:17:37.786Z,101074.00
2018-11-05T04:20:09.562Z,101070.00
2018-11-05T04:22:38.458Z,101064.00
2018-11-05T04:25:08.523Z,101061.00
2018-11-05T04:27:37.415Z,101063.00
2018-11-05T04:30:10.251Z,101061.00
2018-11-05T04:32:39.254Z,101071.00
2018-11-05T04:35:09.480Z,101067.00
2018-11-05T04:37:38.306Z,101072.00
2018-11-05T04:40:09.066Z,101066.00
2018-11-05T04:42:37.933Z,101055.00
2018-11-05T04:45:10.364Z,101050.00
2018-11-05T04:47:39.215Z,101051.00
2018-11-05T04:50:10.405Z,101053.00
2018-11-05T04:52:40.719Z,101039.00
2018-11-05T04:55:09.565Z,101044.00
2018-11-05T04:57:38.495Z,101052.00
2018-11-05T05:00:13.289Z,101048.00
2018-11-05T05:02:42.530Z,101047.00
2018-11-05T05:05:12.540Z,101048.00
2018-11-05T05:07:41.439Z,101055.00
2018-11-05T05:10:10.630Z,101052.00
2018-11-05T05:12:40.426Z,101059.00
2018-11-05T05:15:09.835Z,101061.00
2018-11-05T05:17:39.079Z,101068.00
2018-11-05T05:20:11.566Z,101062.00
2018-11-05T05:22:40.497Z,101066.00
2018-11-05T05:25:09.255Z,101062.00
2018-11-05T05:27:38.072Z,101057.00
2018-11-05T05:30:14.271Z,101060.00
2018-11-05T05:32:43.352Z,101050.00
2018-11-05T05:35:12.244Z,101050.00
2018-11-05T05:37:41.750Z,101043.00
2018-11-05T05:40:10.847Z,101040.00
2018-11-05T05:42:40.446Z,101047.00
2018-11-05T05:45:10.379Z,101046.00
2018-11-05T05:47:39.258Z,101049.00
2018-11-05T05:50:12.622Z,101051.00
2018-11-05T05:52:43.401Z,101048.00
2018-11-05T05:55:12.213Z,101042.00
2018-11-05T05:57:41.087Z,101042.00
2018-11-05T06:00:12.596Z,101043.00
2018-11-05T06:02:41.463Z,101036.00
2018-11-05T06:05:11.731Z,101045.00
2018-11-05T06:07:41.139Z,101047.00
2018-11-05T06:10:11.328Z,101043.00
2018-11-05T06:12:40.245Z,101050.00
2018-11-05T06:15:11.570Z,101044.00
2018-11-05T06:17:40.687Z,101049.00
2018-11-05T06:20:14.191Z,101054.00
2018-11-05T06:22:44.023Z,101062.00
2018-11-05T06:25:12.839Z,101059.00
2018-11-05T06:27:41.755Z,101071.00
2018-11-05T06:30:17.135Z,101069.00
2018-11-05T06:32:46.848Z,101071.00
2018-11-05T06:35:15.711Z,101077.00
2018-11-05T06:37:44.507Z,101076.00
2018-11-05T06:40:16.056Z,101082.00
2018-11-05T06:42:45.207Z,101082.00
2018-11-05T06:45:15.309Z,101076.00
2018-11-05T06:47:44.991Z,101079.00
2018-11-05T06:50:16.667Z,101071.00
2018-11-05T06:52:46.118Z,101081.00
2018-11-05T06:55:15.463Z,101083.00
2018-11-05T06:57:44.362Z,101074.00
2018-11-05T07:00:20.106Z,101073.00
2018-11-05T07:02:48.933Z,101057.00
2018-11-05T07:05:17.837Z,101059.00
2018-11-05T07:07:46.690Z,101074.00
2018-11-05T07:10:16.294Z,101076.00
2018-11-05T07:12:45.415Z,101060.00
2018-11-05T07:15:15.333Z,101052.00
2018-11-05T07:17:45.202Z,101076.00
2018-11-05T07:20:15.556Z,101073.00
2018-11-05T07:22:45.565Z,101083.00
2018-11-05T07:25:15.062Z,101091.00
2018-11-05T07:27:44.340Z,101092.00
2018-11-05T07:30:16.224Z,101091.00
2018-11-05T07:32:53.011Z,101091.00
2018-11-05T07:35:21.847Z,101102.00
2018-11-05T07:37:50.713Z,101096.00
2018-11-05T07:40:20.181Z,101089.00
2018-11-05T07:42:49.485Z,101093.00
2018-11-05T07:45:22.463Z,101084.00
2018-11-05T07:47:51.321Z,101086.00
2018-11-05T07:50:21.302Z,101077.00
2018-11-05T07:52:51.182Z,101084.00
2018-11-05T07:55:20.325Z,101079.00
2018-11-05T07:57:49.986Z,101081.00
2018-11-05T08:00:24.588Z,101083.00
2018-11-05T08:02:54.905Z,101069.00
2018-11-05T08:05:24.245Z,101065.00
2018-11-05T08:07:53.359Z,101072.00
2018-11-05T08:10:22.192Z,101067.00
2018-11-05T08:12:51.015Z,101076.00
2018-11-05T08:15:21.147Z,101083.00
2018-11-05T08:17:50.884Z,101077.00
2018-11-05T08:20:19.858Z,101075.00
2018-11-05T08:22:48.932Z,101066.00
2018-11-05T08:25:18.141Z,101079.00
2018-11-05T08:27:46.991Z,101069.00
2018-11-05T08:30:20.127Z,101075.00
2018-11-05T08:32:49.027Z,101078.00
2018-11-05T08:35:17.890Z,101062.00
2018-11-05T08:37:47.421Z,101061.00
2018-11-05T08:40:18.988Z,101063.00
2018-11-05T08:42:48.946Z,101060.00
2018-11-05T08:45:18.887Z,101053.00
2018-11-05T08:47:47.736Z,101059.00
2018-11-05T08:50:17.985Z,101058.00
2018-11-05T08:52:46.778Z,101066.00
2018-11-05T08:55:18.314Z,101062.00
2018-11-05T08:57:47.262Z,101065.00
2018-11-05T09:00:23.097Z,101061.00
2018-11-05T09:02:52.510Z,101060.00
2018-11-05T09:05:21.488Z,101065.00
2018-11-05T09:07:51.203Z,101075.00
2018-11-05T09:10:20.201Z,101071.00
2018-11-05T09:12:48.898Z,101070.00
2018-11-05T09:15:19.819Z,101061.00
2018-11-05T09:17:49.015Z,101071.00
2018-11-05T09:20:18.872Z,101057.00
2018-11-05T09:22:48.989Z,101060.00
2018-11-05T09:25:18.041Z,101060.00
2018-11-05T09:27:46.961Z,101059.00
2018-11-05T09:30:18.392Z,101053.00
2018-11-05T09:32:47.580Z,101060.00
2018-11-05T09:35:16.442Z,101055.00
2018-11-05T09:37:45.471Z,101054.00
2018-11-05T09:40:17.657Z,101050.00
2018-11-05T09:42:47.132Z,101053.00
2018-11-05T09:45:18.725Z,101050.00
2018-11-05T09:47:47.885Z,101037.00
2018-11-05T09:50:17.330Z,101043.00
2018-11-05T09:52:46.209Z,101032.00
2018-11-05T09:55:15.584Z,101033.00
2018-11-05T09:57:44.925Z,101034.00
2018-11-05T10:00:17.336Z,101037.00
2018-11-05T10:02:51.740Z,101029.00
2018-11-05T10:05:20.676Z,101038.00
2018-11-05T10:07:49.362Z,101033.00
2018-11-05T10:10:18.669Z,101035.00
2018-11-05T10:12:47.422Z,101027.00
2018-11-05T10:15:17.259Z,101014.00
2018-11-05T10:17:46.157Z,101018.00
2018-11-05T10:20:20.087Z,101016.00
2018-11-05T10:22:49.022Z,101016.00
2018-11-05T10:25:18.187Z,101001.00
2018-11-05T10:27:47.457Z,101008.00
2018-11-05T10:30:25.391Z,101002.00
2018-11-05T10:32:54.295Z,101006.00
2018-11-05T10:35:56.955Z,100992.00
2018-11-05T10:38:26.168Z,100999.00
2018-11-05T10:40:55.014Z,100999.00
2018-11-05T10:43:24.520Z,100996.00
2018-11-05T10:45:53.327Z,100994.00
2018-11-05T10:48:22.163Z,100990.00
2018-11-05T10:50:51.008Z,100983.00
2018-11-05T10:53:19.898Z,100984.00
2018-11-05T10:55:48.734Z,100965.00
2018-11-05T10:58:18.065Z,100971.00
2018-11-05T11:00:52.310Z,100974.00
2018-11-05T11:03:21.637Z,100966.00
2018-11-05T11:05:50.464Z,100966.00
2018-11-05T11:08:19.300Z,100969.00
2018-11-05T11:10:48.162Z,100969.00
2018-11-05T11:13:17.017Z,100967.00
2018-11-05T11:15:45.902Z,100970.00
2018-11-05T11:18:14.800Z,100969.00
2018-11-05T11:20:43.659Z,100973.00
2018-11-05T11:23:12.484Z,100969.00
2018-11-05T11:25:41.454Z,100953.00
2018-11-05T11:28:10.287Z,100950.00
2018-11-05T11:30:39.106Z,100940.00
2018-11-05T11:33:07.980Z,100937.00
2018-11-05T11:35:36.799Z,100939.00
2018-11-05T11:38:06.080Z,100941.00
2018-11-05T11:40:34.932Z,100943.00
2018-11-05T11:43:03.839Z,100926.00
2018-11-05T11:45:32.648Z,100934.00
2018-11-05T11:48:01.680Z,100921.00
2018-11-05T11:50:30.546Z,100919.00
2018-11-05T11:52:59.460Z,100902.00
2018-11-05T11:55:28.282Z,100900.00
2018-11-05T11:57:57.159Z,100902.00
2018-11-05T12:00:26.599Z,100906.00
2018-11-05T12:02:55.420Z,100897.00
2018-11-05T12:05:24.344Z,100894.00
2018-11-05T12:07:53.150Z,100886.00
2018-11-05T12:10:23.702Z,100875.00
2018-11-05T12:12:52.558Z,100884.00
2018-11-05T12:15:22.234Z,100887.00
2018-11-05T12:17:52.018Z,100876.00
2018-11-05T12:20:22.057Z,100879.00
2018-11-05T12:22:51.422Z,100867.00
2018-11-05T12:25:20.364Z,100878.00
2018-11-05T12:27:49.150Z,100872.00
2018-11-05T12:30:19.639Z,100871.00
2018-11-05T12:32:49.855Z,100861.00
2018-11-05T12:35:18.730Z,100881.00
2018-11-05T12:37:48.659Z,100866.00
2018-11-05T12:40:18.715Z,100868.00
2018-11-05T12:42:48.596Z,100880.00
2018-11-05T12:45:17.462Z,100874.00
2018-11-05T12:47:46.378Z,100862.00
2018-11-05T12:50:20.027Z,100864.00
2018-11-05T12:52:49.927Z,100859.00
2018-11-05T12:55:18.792Z,100860.00
2018-11-05T12:57:48.023Z,100858.00
2018-11-05T13:00:19.439Z,100852.00
2018-11-05T13:02:54.716Z,100851.00
2018-11-05T13:05:24.939Z,100859.00
2018-11-05T13:07:53.939Z,100852.00
2018-11-05T13:10:23.032Z,100829.00
2018-11-05T13:12:52.382Z,100853.00
2018-11-05T13:15:21.296Z,100817.00
2018-11-05T13:17:50.114Z,100823.00
2018-11-05T13:20:20.198Z,100836.00
2018-11-05T13:22:49.143Z,100825.00
2018-11-05T13:25:17.905Z,100834.00
2018-11-05T13:27:48.715Z,100832.00
2018-11-05T13:30:17.844Z,100823.00
2018-11-05T13:32:46.905Z,100828.00
2018-11-05T13:35:17.318Z,100816.00
2018-11-05T13:37:46.408Z,100814.00
2018-11-05T13:40:16.431Z,100814.00
2018-11-05T13:42:45.738Z,100801.00
2018-11-05T13:45:15.148Z,100813.00
2018-11-05T13:47:44.542Z,100809.00
2018-11-05T13:50:13.474Z,100808.00
2018-11-05T13:52:42.204Z,100805.00
2018-11-05T13:55:15.008Z,100802.00
2018-11-05T13:57:45.151Z,100802.00
2018-11-05T14:00:16.277Z,100805.00
2018-11-05T14:02:45.217Z,100808.00
2018-11-05T14:05:14.763Z,100803.00
2018-11-05T14:07:43.683Z,100799.00
2018-11-05T14:10:18.723Z,100799.00
2018-11-05T14:12:48.246Z,100803.00
2018-11-05T14:15:17.057Z,100808.00
2018-11-05T14:17:46.242Z,100797.00
2018-11-05T14:20:16.234Z,100799.00
2018-11-05T14:22:45.105Z,100791.00
2018-11-05T14:25:15.280Z,100795.00
2018-11-05T14:27:46.492Z,100793.00
2018-11-05T14:30:15.300Z,100772.00
2018-11-05T14:32:45.262Z,100782.00
2018-11-05T14:35:15.191Z,100784.00
2018-11-05T14:37:44.052Z,100788.00
2018-11-05T14:40:14.313Z,100791.00
2018-11-05T14:42:43.176Z,100791.00
2018-11-05T14:45:16.091Z,100796.00
2018-11-05T14:47:45.783Z,100781.00
2018-11-05T14:50:16.707Z,100784.00
2018-11-05T14:52:45.523Z,100786.00
2018-11-05T14:55:16.799Z,100781.00
2018-11-05T14:57:46.700Z,100783.00
2018-11-05T15:00:18.175Z,100779.00
2018-11-05T15:02:47.671Z,100772.00
2018-11-05T15:05:17.222Z,100774.00
2018-11-05T15:07:46.747Z,100772.00
2018-11-05T15:10:19.026Z,100771.00
2018-11-05T15:12:48.517Z,100760.00
2018-11-05T15:15:17.916Z,100758.00
2018-11-05T15:17:47.119Z,100754.00
2018-11-05T15:20:17.598Z,100747.00
2018-11-05T15:22:46.172Z,100758.00
2018-11-05T15:25:15.335Z,100764.00
2018-11-05T15:27:44.202Z,100747.00
2018-11-05T15:30:15.895Z,100752.00
2018-11-05T15:32:44.821Z,100750.00
2018-11-05T15:35:14.209Z,100748.00
2018-11-05T15:37:43.468Z,100746.00
2018-11-05T15:40:14.363Z,100759.00
2018-11-05T15:42:43.207Z,100750.00
2018-11-05T15:45:13.239Z,100752.00
2018-11-05T15:47:42.550Z,100747.00
2018-11-05T15:50:14.315Z,100757.00
2018-11-05T15:52:43.406Z,100755.00
2018-11-05T15:55:12.354Z,100769.00
2018-11-05T15:57:41.523Z,100757.00
2018-11-05T16:00:16.758Z,100756.00
2018-11-05T16:02:47.551Z,100762.00
2018-11-05T16:05:16.778Z,100753.00
2018-11-05T16:07:45.919Z,100760.00
2018-11-05T16:10:14.947Z,100761.00
2018-11-05T16:12:43.770Z,100757.00
2018-11-05T16:15:13.162Z,100751.00
2018-11-05T16:17:42.310Z,100748.00
2018-11-05T16:20:13.647Z,100744.00
2018-11-05T16:22:42.540Z,100744.00
2018-11-05T16:25:11.417Z,100742.00
2018-11-05T16:27:40.279Z,100746.00
2018-11-05T16:30:11.579Z,100744.00
2018-11-05T16:32:40.697Z,100744.00
2018-11-05T16:35:09.651Z,100743.00
2018-11-05T16:37:38.378Z,100743.00
2018-11-05T16:40:11.106Z,100736.00
2018-11-05T16:42:40.230Z,100737.00
2018-11-05T16:45:09.861Z,100737.00
2018-11-05T16:47:39.213Z,100743.00
2018-11-05T16:50:27.282Z,100739.00
2018-11-05T16:52:56.147Z,100743.00
2018-11-05T16:55:25.275Z,100732.00
2018-11-05T16:57:54.137Z,100736.00
2018-11-05T17:00:23.417Z,100737.00
2018-11-05T17:02:52.287Z,100739.00
2018-11-05T17:05:21.361Z,100729.00
2018-11-05T17:07:50.200Z,100726.00
2018-11-05T17:10:19.026Z,100745.00
2018-11-05T17:12:47.862Z,100740.00
2018-11-05T17:15:17.224Z,100756.00
2018-11-05T17:17:46.147Z,100748.00
2018-11-05T17:20:16.340Z,100754.00
2018-11-05T17:22:45.646Z,100749.00
2018-11-05T17:25:14.934Z,100754.00
2018-11-05T17:27:44.419Z,100749.00
2018-11-05T17:30:17.271Z,100744.00
2018-11-05T17:32:46.131Z,100755.00
2018-11-05T17:35:15.514Z,100749.00
2018-11-05T17:37:44.897Z,100747.00
2018-11-05T17:40:16.144Z,100744.00
2018-11-05T17:42:44.887Z,100742.00
2018-11-05T17:45:15.326Z,100739.00
2018-11-05T17:47:44.474Z,100744.00
2018-11-05T17:50:15.145Z,100743.00
2018-11-05T17:52:44.306Z,100749.00
2018-11-05T17:55:14.234Z,100741.00
2018-11-05T17:57:44.347Z,100751.00
2018-11-05T18:00:15.390Z,100732.00
2018-11-05T18:02:44.242Z,100750.00
2018-11-05T18:05:13.115Z,100740.00
2018-11-05T18:07:43.486Z,100742.00
2018-11-05T18:10:12.354Z,100747.00
2018-11-05T18:12:41.287Z,100743.00
2018-11-05T18:15:11.510Z,100755.00
2018-11-05T18:17:40.891Z,100748.00
2018-11-05T18:20:11.415Z,100752.00
2018-11-05T18:22:40.414Z,100752.00
2018-11-05T18:25:11.732Z,100740.00
2018-11-05T18:27:40.580Z,100736.00
2018-11-05T18:30:10.547Z,100736.00
2018-11-05T18:32:39.381Z,100733.00
2018-11-05T18:35:10.470Z,100730.00
2018-11-05T18:37:39.423Z,100742.00
2018-11-05T18:40:11.272Z,100739.00
2018-11-05T18:42:40.558Z,100735.00
2018-11-05T18:45:09.631Z,100739.00
2018-11-05T18:47:39.458Z,100727.00
2018-11-05T18:50:11.557Z,100717.00
2018-11-05T18:52:40.520Z,100723.00
2018-11-05T18:55:11.155Z,100719.00
2018-11-05T18:57:40.275Z,100717.00
2018-11-05T19:00:23.074Z,100711.00
2018-11-05T19:02:52.786Z,100712.00
2018-11-05T19:05:22.487Z,100719.00
2018-11-05T19:07:51.715Z,100705.00
2018-11-05T19:10:20.710Z,100712.00
2018-11-05T19:12:50.284Z,100711.00
2018-11-05T19:15:19.263Z,100711.00
2018-11-05T19:17:48.724Z,100709.00
2018-11-05T19:20:17.888Z,100708.00
2018-11-05T19:22:47.058Z,100702.00
2018-11-05T19:25:16.506Z,100713.00
2018-11-05T19:27:45.422Z,100704.00
2018-11-05T19:30:18.554Z,100702.00
2018-11-05T19:32:47.354Z,100695.00
2018-11-05T19:35:16.224Z,100702.00
2018-11-05T19:37:45.110Z,100703.00
2018-11-05T19:40:14.803Z,100693.00
2018-11-05T19:42:44.606Z,100696.00
2018-11-05T19:45:15.650Z,100685.00
2018-11-05T19:47:44.470Z,100689.00
2018-11-05T19:50:15.431Z,100693.00
2018-11-05T19:52:45.547Z,100698.00
2018-11-05T19:55:15.566Z,100698.00
2018-11-05T19:57:45.279Z,100706.00
2018-11-05T20:00:18.959Z,100707.00
2018-11-05T20:02:48.506Z,100715.00
2018-11-05T20:05:17.735Z,100716.00
2018-11-05T20:07:47.275Z,100714.00
2018-11-05T20:10:16.436Z,100714.00
2018-11-05T20:12:45.887Z,100711.00
2018-11-05T20:15:14.998Z,100708.00
2018-11-05T20:17:44.700Z,100717.00
2018-11-05T20:20:14.924Z,100703.00
2018-11-05T20:22:43.987Z,100702.00
2018-11-05T20:25:12.898Z,100711.00
2018-11-05T20:27:42.211Z,100703.00
2018-11-05T20:30:15.484Z,100706.00
2018-11-05T20:32:45.560Z,100704.00
2018-11-05T20:35:14.201Z,100689.00
2018-11-05T20:37:43.020Z,100700.00
2018-11-05T20:40:13.455Z,100696.00
2018-11-05T20:42:43.358Z,100693.00
2018-11-05T20:45:12.251Z,100701.00
2018-11-05T20:47:41.163Z,100693.00
2018-11-05T20:50:10.843Z,100700.00
2018-11-05T20:52:40.435Z,100699.00
2018-11-05T20:55:10.471Z,100703.00
2018-11-05T20:57:39.664Z,100695.00
2018-11-05T21:00:11.012Z,100697.00
2018-11-05T21:02:40.506Z,100693.00
2018-11-05T21:05:09.348Z,100700.00
2018-11-05T21:07:38.596Z,100697.00
2018-11-05T21:10:10.774Z,100690.00
2018-11-05T21:12:41.158Z,100690.00
2018-11-05T21:15:14.802Z,100680.00
2018-11-05T21:17:44.481Z,100680.00
2018-11-05T21:20:13.714Z,100684.00
2018-11-05T21:22:42.704Z,100684.00
2018-11-05T21:25:11.469Z,100683.00
2018-11-05T21:27:41.099Z,100677.00
2018-11-05T21:30:13.087Z,100667.00
2018-11-05T21:32:41.992Z,100669.00
2018-11-05T21:35:13.070Z,100668.00
2018-11-05T21:37:42.234Z,100671.00
2018-11-05T21:40:12.216Z,100661.00
2018-11-05T21:42:41.006Z,100676.00
2018-11-05T21:45:11.342Z,100678.00
2018-11-05T21:47:40.610Z,100666.00
2018-11-05T21:50:11.770Z,100666.00
2018-11-05T21:52:41.558Z,100672.00
2018-11-05T21:55:10.458Z,100673.00
2018-11-05T21:57:41.732Z,100666.00
2018-11-05T22:00:20.144Z,100672.00
2018-11-05T22:02:54.403Z,100667.00
2018-11-05T22:05:23.519Z,100659.00
2018-11-05T22:07:52.347Z,100663.00
2018-11-05T22:10:21.276Z,100662.00
2018-11-05T22:12:50.954Z,100656.00
2018-11-05T22:15:20.031Z,100650.00
2018-11-05T22:17:48.860Z,100648.00
2018-11-05T22:20:17.720Z,100651.00
2018-11-05T22:22:46.561Z,100646.00
2018-11-05T22:25:15.389Z,100650.00
2018-11-05T22:27:44.247Z,100648.00
2018-11-05T22:30:13.381Z,100639.00
2018-11-05T22:32:42.229Z,100646.00
2018-11-05T22:35:11.356Z,100642.00
2018-11-05T22:37:40.205Z,100646.00
2018-11-05T22:40:11.519Z,100641.00
2018-11-05T22:42:40.359Z,100641.00
2018-11-05T22:45:10.247Z,100646.00
2018-11-05T22:47:39.069Z,100652.00
2018-11-05T22:50:09.373Z,100640.00
2018-11-05T22:52:38.650Z,100644.00
2018-11-05T22:55:08.058Z,100646.00
2018-11-05T22:57:37.020Z,100635.00
2018-11-05T23:00:17.752Z,100642.00
2018-11-05T23:02:51.894Z,100643.00
2018-11-05T23:05:21.088Z,100641.00
2018-11-05T23:07:50.377Z,100648.00
2018-11-05T23:10:19.240Z,100633.00
2018-11-05T23:12:48.088Z,100636.00
2018-11-05T23:15:17.412Z,100643.00
2018-11-05T23:17:46.667Z,100644.00
2018-11-05T23:20:15.496Z,100636.00
2018-11-05T23:22:44.543Z,100642.00
2018-11-05T23:25:13.963Z,100639.00
2018-11-05T23:27:42.766Z,100650.00
2018-11-05T23:30:13.167Z,100647.00
2018-11-05T23:32:42.274Z,100638.00
2018-11-05T23:35:11.682Z,100630.00
2018-11-05T23:37:41.297Z,100641.00
2018-11-05T23:40:10.617Z,100641.00
2018-11-05T23:42:39.986Z,100637.00
2018-11-05T23:45:11.983Z,100628.00
2018-11-05T23:47:40.986Z,100633.00
2018-11-05T23:50:10.240Z,100625.00
2018-11-05T23:52:39.108Z,100638.00
2018-11-05T23:55:09.468Z,100618.00
2018-11-05T23:57:38.297Z,100624.00
